Time;durP1;ratioP1;P1;durP2;ratioP2;P2;SDS_P1;SDS_P2;PMS_P1;PMS_P2;Temp;Humidity;BMP_temperature;BMP_pressure;BME280_temperature;BME280_humidity;BME280_pressure;Samples;Min_cycle;Max_cycle;Signal;HPM_P1;HPM_P2
2024/01/10 00:02:15;;;;;;;42.15;22.52;;;-5.30;99.90;;;;;;5106185;27;20053;-80
2024/01/10 00:04:41;;;;;;;39.67;20.83;;;;;;;;;;5089000;27;20043;-81
2024/01/10 00:07:07;;;;;;;37.67;19.25;;;;;;;;;;5105957;27;20043;-79
2024/01/10 00:09:33;;;;;;;38.33;18.23;;;;;;;;;;5089151;27;20046;-79
2024/01/10 00:11:59;;;;;;;39.85;20.10;;;-5.30;99.90;;;;;;5089985;27;20399;-80
2024/01/10 00:14:25;;;;;;;36.72;19.30;;;-5.40;99.90;;;;;;5090913;27;20043;-80
2024/01/10 00:16:51;;;;;;;39.97;19.38;;;-5.50;99.90;;;;;;5108807;27;20050;-81
2024/01/10 00:19:17;;;;;;;36.95;19.00;;;;;;;;;;5108485;27;20127;-81
2024/01/10 00:21:43;;;;;;;33.08;18.58;;;;;;;;;;5126130;27;20047;-80
2024/01/10 00:24:09;;;;;;;32.45;16.30;;;-5.50;99.90;;;;;;5108369;27;20043;-79
2024/01/10 00:26:35;;;;;;;33.60;18.10;;;-5.70;99.90;;;;;;5114157;27;20054;-82
2024/01/10 00:29:01;;;;;;;32.13;16.88;;;-5.40;99.90;;;;;;5097060;27;20039;-81
2024/01/10 00:31:27;;;;;;;31.05;16.17;;;;;;;;;;5106844;28;20074;-80
2024/01/10 00:33:53;;;;;;;31.83;17.30;;;;;;;;;;5119641;27;20491;-80
2024/01/10 00:36:19;;;;;;;32.70;16.80;;;;;;;;;;5110944;27;20049;-82
2024/01/10 00:38:45;;;;;;;34.65;17.02;;;;;;;;;;5109776;27;20039;-80
2024/01/10 00:41:12;;;;;;;30.38;15.50;;;-5.90;99.90;;;;;;5126886;27;20415;-80
2024/01/10 00:43:38;;;;;;;34.58;16.75;;;;;;;;;;5131266;27;20054;-83
2024/01/10 00:46:04;;;;;;;29.83;16.10;;;;;;;;;;5106940;27;20035;-81
2024/01/10 00:48:30;;;;;;;33.28;16.23;;;;;;;;;;5106932;28;20043;-82
2024/01/10 00:50:56;;;;;;;30.35;17.08;;;-5.90;99.90;;;;;;5105783;28;20530;-82
2024/01/10 00:53:22;;;;;;;32.92;16.98;;;;;;;;;;5105691;28;20035;-81
2024/01/10 00:55:49;;;;;;;28.25;15.18;;;;;;;;;;5105825;28;20122;-80
2024/01/10 00:58:15;;;;;;;28.80;16.23;;;;;;;;;;5109938;27;20039;-82
2024/01/10 01:00:41;;;;;;;34.08;16.20;;;-6.00;99.90;;;;;;5125877;27;20042;-82
2024/01/10 01:03:06;;;;;;;32.30;15.40;;;-6.10;99.90;;;;;;5091325;27;20135;-82
2024/01/10 01:05:33;;;;;;;30.63;15.77;;;;;;;;;;5103564;27;20049;-82
2024/01/10 01:07:59;;;;;;;31.35;15.30;;;;;;;;;;5124451;27;20058;-82
2024/01/10 01:10:25;;;;;;;28.20;15.52;;;;;;;;;;5107545;27;20043;-82
2024/01/10 01:12:51;;;;;;;31.10;15.90;;;-6.00;99.90;;;;;;5111151;27;20045;-81
2024/01/10 01:15:16;;;;;;;26.85;15.13;;;-6.20;99.90;;;;;;5112038;27;20047;-82
2024/01/10 01:17:43;;;;;;;27.42;15.05;;;;;;;;;;5111811;27;20042;-82
2024/01/10 01:20:09;;;;;;;33.13;16.27;;;;;;;;;;5105202;27;20130;-82
2024/01/10 01:22:36;;;;;;;31.40;15.95;;;;;;;;;;5129870;27;20050;-82
2024/01/10 01:25:02;;;;;;;31.20;15.15;;;;;;;;;;5111708;27;20053;-81
2024/01/10 01:27:28;;;;;;;31.25;15.52;;;;;;;;;;5095089;27;20039;-81
2024/01/10 01:29:54;;;;;;;32.50;16.17;;;-6.40;99.90;;;;;;5108865;27;20625;-81
2024/01/10 01:32:20;;;;;;;33.00;18.10;;;;;;;;;;5101128;27;20038;-81
2024/01/10 01:34:46;;;;;;;34.40;19.13;;;-6.60;99.90;;;;;;5128888;27;20038;-81
2024/01/10 01:37:12;;;;;;;41.95;21.17;;;;;;;;;;5111293;27;20042;-81
2024/01/10 01:39:39;;;;;;;40.38;21.40;;;;;;;;;;5111049;27;20150;-81
2024/01/10 01:42:04;;;;;;;42.22;22.15;;;-6.70;99.90;;;;;;5128690;27;20502;-81
2024/01/10 01:44:31;;;;;;;52.40;22.27;;;;;;;;;;5091670;27;20035;-81
2024/01/10 01:46:58;;;;;;;47.70;24.27;;;;;;;;;;5091900;27;20096;-81
2024/01/10 01:49:25;;;;;;;53.42;26.35;;;-7.00;99.90;;;;;;5093881;27;20066;-81
2024/01/10 01:51:52;;;;;;;54.03;27.33;;;-7.00;99.90;;;;;;5111677;27;20039;-81
2024/01/10 01:54:18;;;;;;;49.03;25.73;;;;;;;;;;5111907;27;20046;-82
2024/01/10 01:56:44;;;;;;;62.90;27.38;;;-6.80;99.90;;;;;;5092485;27;20043;-81
2024/01/10 01:59:11;;;;;;;52.47;25.15;;;-6.90;99.90;;;;;;5108599;27;20035;-82
2024/01/10 02:01:37;;;;;;;54.75;27.48;;;-6.70;99.90;;;;;;5091321;27;20051;-81
2024/01/10 02:04:03;;;;;;;54.13;27.05;;;;;;;;;;5108810;27;20035;-81
2024/01/10 02:06:30;;;;;;;57.47;26.30;;;-6.90;99.90;;;;;;5091411;27;20437;-81
2024/01/10 02:08:57;;;;;;;55.40;26.52;;;-6.80;99.90;;;;;;5108382;27;20404;-81
2024/01/10 02:11:24;;;;;;;58.88;27.63;;;-6.70;99.90;;;;;;5091673;27;20627;-81
2024/01/10 02:13:51;;;;;;;58.63;27.65;;;-6.80;99.90;;;;;;5128933;27;20044;-81
2024/01/10 02:16:18;;;;;;;60.33;28.60;;;-6.60;99.90;;;;;;5116341;27;20062;-82
2024/01/10 02:18:44;;;;;;;58.83;28.00;;;;;;;;;;5110149;27;20710;-81
2024/01/10 02:21:10;;;;;;;57.38;27.70;;;-6.60;99.90;;;;;;5110353;27;20042;-81
2024/01/10 02:23:36;;;;;;;63.00;28.08;;;-6.80;99.90;;;;;;5109600;27;20046;-82
2024/01/10 02:26:02;;;;;;;58.45;28.25;;;;;;;;;;5111064;27;20043;-81
2024/01/10 02:28:28;;;;;;;64.10;29.15;;;;;;;;;;5111721;27;20054;-84
2024/01/10 02:30:55;;;;;;;57.55;27.30;;;-6.50;99.90;;;;;;5111408;27;20130;-84
2024/01/10 02:33:21;;;;;;;66.00;31.30;;;;;;;;;;5110982;27;20031;-84
2024/01/10 02:35:47;;;;;;;68.90;32.83;;;;;;;;;;5127511;27;20043;-83
2024/01/10 02:38:15;;;;;;;75.28;33.80;;;-6.40;99.90;;;;;;5127826;27;20051;-82
2024/01/10 02:40:41;;;;;;;64.78;30.02;;;-6.20;99.90;;;;;;5111115;27;20567;-82
2024/01/10 02:43:08;;;;;;;65.20;31.73;;;;;;;;;;5127842;27;20050;-82
2024/01/10 02:45:35;;;;;;;62.45;30.20;;;-6.20;99.90;;;;;;5110517;27;20099;-82
2024/01/10 02:48:01;;;;;;;62.10;29.98;;;;;;;;;;5110227;27;20121;-81
2024/01/10 02:50:27;;;;;;;69.22;29.85;;;-6.30;99.90;;;;;;5127843;27;20553;-80
2024/01/10 02:52:53;;;;;;;66.82;31.52;;;;;;;;;;5090161;27;20035;-82
2024/01/10 02:55:20;;;;;;;64.70;30.70;;;;;;;;;;5090448;27;20182;-82
2024/01/10 02:57:46;;;;;;;64.68;31.23;;;;;;;;;;5090404;27;20042;-79
2024/01/10 03:00:13;;;;;;;62.75;31.20;;;-6.10;99.90;;;;;;5107391;27;20408;-82
2024/01/10 03:02:39;;;;;;;63.90;29.08;;;;;;;;;;5107774;27;20047;-83
2024/01/10 03:05:05;;;;;;;66.15;29.85;;;-6.20;99.90;;;;;;5108092;27;20047;-82
2024/01/10 03:07:31;;;;;;;58.72;27.98;;;;;;;;;;5126725;27;20126;-81
2024/01/10 03:09:57;;;;;;;61.63;29.77;;;;;;;;;;5103092;27;20039;-82
2024/01/10 03:12:23;;;;;;;63.10;30.20;;;;;;;;;;5106839;27;20058;-82
2024/01/10 03:14:49;;;;;;;60.78;28.92;;;;;;;;;;5106646;27;20075;-82
2024/01/10 03:17:16;;;;;;;60.45;29.42;;;;;;;;;;5094918;27;20325;-82
2024/01/10 03:19:43;;;;;;;60.97;28.58;;;-6.30;99.90;;;;;;5110194;27;20070;-83
2024/01/10 03:22:11;;;;;;;62.67;30.30;;;-6.30;99.90;;;;;;5093210;27;20220;-83
2024/01/10 03:24:37;;;;;;;59.55;27.67;;;;;;;;;;5092846;27;20488;-81
2024/01/10 03:27:04;;;;;;;64.70;28.95;;;-6.30;99.90;;;;;;5109603;27;20054;-76
2024/01/10 03:29:30;;;;;;;65.90;30.02;;;;;;;;;;5110319;27;20038;-78
2024/01/10 03:31:56;;;;;;;56.95;29.17;;;;;;;;;;5109813;27;20058;-79
2024/01/10 03:34:23;;;;;;;60.28;29.00;;;;;;;;;;5108922;27;20035;-79
2024/01/10 03:36:49;;;;;;;59.45;28.92;;;;;;;;;;5113220;27;20090;-81
2024/01/10 03:39:15;;;;;;;59.53;29.55;;;-6.40;99.90;;;;;;5120122;27;20095;-83
2024/01/10 03:41:41;;;;;;;66.40;30.85;;;;;;;;;;5118924;27;20046;-81
2024/01/10 03:44:06;;;;;;;64.95;29.92;;;-6.30;99.90;;;;;;5109148;27;20067;-82
2024/01/10 03:46:33;;;;;;;59.28;29.95;;;;;;;;;;5108925;27;20050;-83
2024/01/10 03:48:59;;;;;;;63.05;27.73;;;-6.20;99.90;;;;;;5109299;27;20055;-82
2024/01/10 03:51:25;;;;;;;57.85;28.50;;;;;;;;;;5108874;27;20678;-81
2024/01/10 03:53:51;;;;;;;64.40;29.58;;;;;;;;;;5106639;27;20081;-80
2024/01/10 03:56:17;;;;;;;57.70;29.77;;;-6.70;99.90;;;;;;5105646;27;20080;-81
2024/01/10 03:58:44;;;;;;;61.72;30.25;;;;;;;;;;5109842;27;20046;-81
2024/01/10 04:01:10;;;;;;;63.25;29.92;;;-6.60;99.90;;;;;;5125610;27;20085;-82
2024/01/10 04:03:36;;;;;;;55.25;28.50;;;-6.40;99.90;;;;;;5108979;27;20078;-80
2024/01/10 04:06:02;;;;;;;63.47;29.17;;;-6.40;99.90;;;;;;5109320;27;20794;-80
2024/01/10 04:08:28;;;;;;;63.90;27.80;;;-6.60;99.90;;;;;;5109490;27;20049;-81
2024/01/10 04:10:54;;;;;;;64.07;29.20;;;-6.50;99.90;;;;;;5105063;27;20039;-82
2024/01/10 04:13:20;;;;;;;64.50;30.35;;;-6.70;99.90;;;;;;5096383;27;20084;-81
2024/01/10 04:15:46;;;;;;;58.05;29.20;;;-6.50;99.90;;;;;;5106207;27;20047;-82
2024/01/10 04:18:12;;;;;;;57.47;30.65;;;-6.40;99.90;;;;;;5089332;27;20050;-81
2024/01/10 04:20:38;;;;;;;63.88;29.30;;;-6.60;99.90;;;;;;5088546;27;20604;-81
2024/01/10 04:23:04;;;;;;;59.10;28.95;;;;;;;;;;5091251;27;20049;-82
2024/01/10 04:25:30;;;;;;;63.88;29.85;;;;;;;;;;5117878;27;20135;-82
2024/01/10 04:27:57;;;;;;;59.10;28.50;;;;;;;;;;5088990;27;20080;-83
2024/01/10 04:30:23;;;;;;;57.65;29.33;;;-6.70;99.90;;;;;;5095847;27;20039;-82
2024/01/10 04:32:49;;;;;;;60.65;31.50;;;;;;;;;;5109245;27;20043;-83
2024/01/10 04:35:15;;;;;;;67.35;29.52;;;;;;;;;;5103664;28;20046;-82
2024/01/10 04:37:41;;;;;;;62.88;29.15;;;;;;;;;;5089699;28;20184;-82
2024/01/10 04:40:08;;;;;;;60.65;29.25;;;-7.10;99.90;;;;;;5107157;28;20137;-83
2024/01/10 04:42:33;;;;;;;57.70;27.90;;;-7.00;99.90;;;;;;5114198;27;20054;-82
2024/01/10 04:44:59;;;;;;;60.42;29.30;;;;;;;;;;5096455;27;20042;-83
2024/01/10 04:47:25;;;;;;;60.80;29.77;;;-6.80;99.90;;;;;;5107716;27;20142;-83
2024/01/10 04:49:52;;;;;;;63.00;29.55;;;;;;;;;;5093389;27;20035;-81
2024/01/10 04:52:18;;;;;;;62.67;29.95;;;;;;;;;;5109587;27;20071;-80
2024/01/10 04:54:44;;;;;;;64.47;31.27;;;;;;;;;;5109519;27;20574;-81
2024/01/10 04:57:10;;;;;;;64.22;31.42;;;-7.00;99.90;;;;;;5116720;27;20088;-82
2024/01/10 04:59:36;;;;;;;58.20;29.30;;;;;;;;;;5130261;27;20043;-81
2024/01/10 05:02:02;;;;;;;63.38;32.70;;;-6.80;99.90;;;;;;5109274;27;20045;-81
2024/01/10 05:04:28;;;;;;;63.65;31.08;;;;;;;;;;5092603;27;20407;-82
2024/01/10 05:06:54;;;;;;;65.80;29.17;;;-6.90;99.90;;;;;;5109508;27;20039;-81
2024/01/10 05:09:20;;;;;;;69.05;31.92;;;;;;;;;;5092349;27;20918;-82
2024/01/10 05:11:51;;;;;;;69.68;31.10;;;-6.10;99.90;;;;;;5109273;27;20384;-82
2024/01/10 05:14:19;;;;;;;68.82;32.10;;;-7.00;99.90;;;;;;5129605;27;20078;-83
2024/01/10 05:16:45;;;;;;;67.55;31.20;;;-6.80;99.90;;;;;;5093200;27;20055;-83
2024/01/10 05:19:11;;;;;;;64.68;29.60;;;;;;;;;;5109736;27;20126;-82
2024/01/10 05:21:38;;;;;;;68.35;30.65;;;;;;;;;;5100868;27;20264;-83
2024/01/10 05:24:04;;;;;;;70.70;30.08;;;-6.90;99.90;;;;;;5111173;27;20038;-82
2024/01/10 05:26:30;;;;;;;69.78;32.58;;;;;;;;;;5110894;27;20050;-82
2024/01/10 05:28:56;;;;;;;70.28;31.92;;;;;;;;;;5128655;27;20065;-81
2024/01/10 05:31:22;;;;;;;67.25;32.92;;;-6.80;99.90;;;;;;5128541;27;20045;-82
2024/01/10 05:33:48;;;;;;;68.07;31.58;;;-6.90;99.90;;;;;;5111909;27;20065;-82
2024/01/10 05:36:14;;;;;;;62.72;30.80;;;;;;;;;;5100005;27;20043;-82
2024/01/10 05:38:40;;;;;;;63.78;30.73;;;-6.80;99.90;;;;;;5103294;27;20085;-82
2024/01/10 05:41:07;;;;;;;59.60;30.33;;;;;;;;;;5128371;27;20052;-81
2024/01/10 05:43:33;;;;;;;64.55;30.88;;;;;;;;;;5118623;27;20073;-81
2024/01/10 05:46:00;;;;;;;61.70;31.23;;;-7.00;99.90;;;;;;5092572;27;20062;-82
2024/01/10 05:48:25;;;;;;;66.22;31.58;;;-6.90;99.90;;;;;;5124272;27;20049;-82
2024/01/10 05:50:51;;;;;;;62.63;28.48;;;-6.70;99.90;;;;;;5091513;27;20035;-82
2024/01/10 05:53:18;;;;;;;67.45;32.35;;;-6.90;99.90;;;;;;5116037;27;20043;-83
2024/01/10 05:55:44;;;;;;;72.05;31.33;;;;;;;;;;5118472;27;20138;-82
2024/01/10 05:58:11;;;;;;;64.18;31.50;;;-7.00;99.90;;;;;;5092103;27;20053;-81
2024/01/10 06:00:37;;;;;;;64.25;30.35;;;-6.80;99.90;;;;;;5102189;27;20039;-82
2024/01/10 06:03:03;;;;;;;64.00;30.35;;;;;;;;;;5120784;27;20038;-82
2024/01/10 06:05:31;;;;;;;66.15;31.30;;;;;;;;;;5109238;27;20047;-82
2024/01/10 06:07:57;;;;;;;66.43;32.30;;;-6.90;99.90;;;;;;5090888;27;20088;-83
2024/01/10 06:10:23;;;;;;;67.82;31.92;;;-6.10;99.90;;;;;;5107924;27;20043;-81
2024/01/10 06:12:49;;;;;;;68.63;33.13;;;-6.80;99.90;;;;;;5126339;27;20039;-83
2024/01/10 06:15:14;;;;;;;70.15;34.53;;;-6.70;99.90;;;;;;5091116;27;20039;-82
2024/01/10 06:17:41;;;;;;;75.40;32.22;;;;;;;;;;5090980;27;20832;-83
2024/01/10 06:20:07;;;;;;;74.30;35.92;;;-6.80;99.90;;;;;;5090862;27;20039;-82
2024/01/10 06:22:33;;;;;;;71.70;35.28;;;-6.20;99.90;;;;;;5090683;27;20178;-84
2024/01/10 06:24:59;;;;;;;71.85;34.08;;;-6.90;99.90;;;;;;5108858;27;20495;-83
2024/01/10 06:27:25;;;;;;;70.68;33.72;;;-6.90;99.90;;;;;;5095634;27;20042;-83
2024/01/10 06:29:51;;;;;;;68.25;33.38;;;;;;;;;;5108790;27;20039;-83
2024/01/10 06:32:17;;;;;;;73.90;34.80;;;;;;;;;;5090682;27;20058;-83
2024/01/10 06:34:43;;;;;;;70.65;33.78;;;;;;;;;;5092816;27;20039;-82
2024/01/10 06:37:11;;;;;;;72.82;36.05;;;-7.00;99.90;;;;;;5093155;27;20042;-82
2024/01/10 06:39:37;;;;;;;73.28;34.78;;;;;;;;;;5107122;27;20066;-83
2024/01/10 06:42:05;;;;;;;73.32;34.25;;;-6.80;99.90;;;;;;5099905;27;20462;-81
2024/01/10 06:44:31;;;;;;;69.70;33.75;;;-6.80;99.90;;;;;;5093452;27;20043;-84
2024/01/10 06:46:57;;;;;;;70.45;34.53;;;;;;;;;;5108064;27;20054;-82
2024/01/10 06:49:23;;;;;;;73.80;34.33;;;-6.90;99.90;;;;;;5090255;27;20607;-80
2024/01/10 06:51:49;;;;;;;70.47;33.85;;;-6.90;99.90;;;;;;5107855;27;20039;-81
2024/01/10 06:54:15;;;;;;;68.50;34.60;;;-6.60;99.90;;;;;;5090911;27;20041;-82
2024/01/10 06:56:41;;;;;;;75.30;36.15;;;-6.60;99.90;;;;;;5090855;27;20043;-83
2024/01/10 06:59:07;;;;;;;69.28;34.63;;;-6.70;99.90;;;;;;5107288;27;20095;-84
2024/01/10 07:01:33;;;;;;;75.10;35.08;;;;;;;;;;5131293;27;20094;-80
2024/01/10 07:03:59;;;;;;;69.30;34.63;;;;;;;;;;5100824;27;20085;-84
2024/01/10 07:06:25;;;;;;;83.85;35.47;;;-6.90;99.90;;;;;;5091060;27;20609;-84
2024/01/10 07:08:51;;;;;;;71.93;35.90;;;;;;;;;;5107795;27;20040;-81
2024/01/10 07:11:19;;;;;;;72.80;34.65;;;-6.70;99.90;;;;;;5090845;27;20043;-81
2024/01/10 07:13:45;;;;;;;75.30;34.80;;;-6.80;99.90;;;;;;5095909;27;20130;-83
2024/01/10 07:16:14;;;;;;;77.13;36.70;;;;;;;;;;5092651;27;20042;-83
2024/01/10 07:18:40;;;;;;;74.78;35.75;;;-6.70;99.90;;;;;;5110624;27;20568;-80
2024/01/10 07:21:09;;;;;;;68.05;32.20;;;;;;;;;;5110304;27;20503;-84
2024/01/10 07:23:35;;;;;;;73.18;33.35;;;-6.90;99.90;;;;;;5128324;27;20043;-80
2024/01/10 07:26:01;;;;;;;74.47;36.17;;;-6.90;99.90;;;;;;5099677;27;20114;-80
2024/01/10 07:28:27;;;;;;;69.28;35.28;;;-6.70;99.90;;;;;;5107080;27;20043;-82
2024/01/10 07:30:53;;;;;;;65.32;33.55;;;;;;;;;;5091392;27;20054;-78
2024/01/10 07:33:20;;;;;;;57.17;28.50;;;;;;;;;;5089141;27;20119;-81
2024/01/10 07:35:45;;;;;;;67.53;33.75;;;-6.70;99.90;;;;;;5088162;27;20043;-78
2024/01/10 07:38:11;;;;;;;63.80;33.78;;;-6.60;99.90;;;;;;5088898;27;20120;-81
2024/01/10 07:40:37;;;;;;;64.35;32.83;;;-6.70;99.90;;;;;;5106032;27;20043;-80
2024/01/10 07:43:04;;;;;;;61.45;29.90;;;-6.60;99.90;;;;;;5088894;27;20047;-81
2024/01/10 07:45:30;;;;;;;67.18;32.50;;;;;;;;;;5106303;27;20051;-81
2024/01/10 07:47:56;;;;;;;66.25;32.95;;;-6.60;99.90;;;;;;5089020;27;20134;-82
2024/01/10 07:50:26;;;;;;;62.83;31.75;;;-6.60;99.90;;;;;;5089167;27;20046;-83
2024/01/10 07:52:53;;;;;;;65.38;31.95;;;;;;;;;;5089672;27;20518;-82
2024/01/10 07:55:19;;;;;;;60.75;30.70;;;-6.60;99.90;;;;;;5089251;27;20038;-82
2024/01/10 07:57:44;;;;;;;64.75;31.63;;;-6.50;99.90;;;;;;5089537;27;20784;-83
2024/01/10 08:00:11;;;;;;;60.85;31.98;;;;;;;;;;5106557;27;20043;-85
2024/01/10 08:02:40;;;;;;;56.00;30.00;;;-6.70;99.90;;;;;;5093848;27;20034;-82
2024/01/10 08:05:09;;;;;;;63.42;31.25;;;;;;;;;;5109354;27;20134;-84
2024/01/10 08:07:39;;;;;;;58.60;29.42;;;-6.60;99.90;;;;;;5126614;27;20042;-80
2024/01/10 08:10:09;;;;;;;58.05;28.52;;;-6.70;99.90;;;;;;5126034;27;20591;-78
2024/01/10 08:12:36;;;;;;;58.58;28.50;;;-6.70;99.90;;;;;;5097213;27;20035;-78
2024/01/10 08:15:02;;;;;;;62.03;28.58;;;;;;;;;;5104486;27;20046;-82
2024/01/10 08:17:28;;;;;;;58.60;27.77;;;;;;;;;;5088547;27;20047;-79
2024/01/10 08:19:54;;;;;;;57.55;27.33;;;;;;;;;;5106057;27;20057;-80
2024/01/10 08:22:20;;;;;;;57.80;27.30;;;-6.40;99.90;;;;;;5089081;27;20681;-81
2024/01/10 08:24:47;;;;;;;55.67;26.95;;;;;;;;;;5089323;27;20047;-82
2024/01/10 08:27:13;;;;;;;54.47;26.17;;;;;;;;;;5107403;27;20089;-82
2024/01/10 08:29:40;;;;;;;53.83;25.13;;;;;;;;;;5106522;27;20043;-82
2024/01/10 08:32:06;;;;;;;56.75;26.05;;;;;;;;;;5126338;27;20045;-81
2024/01/10 08:34:33;;;;;;;57.90;25.58;;;;;;;;;;5106462;28;20543;-82
2024/01/10 08:36:59;;;;;;;55.72;24.15;;;-6.10;99.90;;;;;;5106123;27;20512;-81
2024/01/10 08:39:28;;;;;;;53.13;23.77;;;-5.40;99.90;;;;;;5088978;28;20057;-81
2024/01/10 08:41:53;;;;;;;55.58;25.45;;;-6.00;99.90;;;;;;5105946;28;20046;-80
2024/01/10 08:44:19;;;;;;;59.45;26.58;;;-5.90;99.90;;;;;;5105243;28;20043;-81
2024/01/10 08:46:46;;;;;;;64.13;26.92;;;;;;;;;;5105669;27;20047;-81
2024/01/10 08:49:12;;;;;;;54.20;22.05;;;;;;;;;;5091330;27;20035;-79
2024/01/10 08:51:40;;;;;;;55.47;23.90;;;;;;;;;;5125536;27;20106;-79
2024/01/10 08:54:06;;;;;;;50.63;25.23;;;-6.10;99.90;;;;;;5125704;27;20050;-82
2024/01/10 08:56:32;;;;;;;57.08;24.88;;;;;;;;;;5107717;27;20050;-82
2024/01/10 08:58:58;;;;;;;57.63;24.17;;;-5.80;99.90;;;;;;5108310;27;20042;-82
2024/01/10 09:01:24;;;;;;;56.08;24.30;;;;;;;;;;5108515;27;20049;-81
2024/01/10 09:03:51;;;;;;;47.88;20.95;;;-5.50;99.90;;;;;;5124925;27;20043;-81
2024/01/10 09:06:18;;;;;;;60.80;25.33;;;;;;;;;;5119402;28;20111;-82
2024/01/10 09:08:44;;;;;;;53.92;22.00;;;;;;;;;;5105259;28;20116;-79
2024/01/10 09:11:10;;;;;;;47.67;20.70;;;;;;;;;;5088188;28;20197;-79
2024/01/10 09:13:37;;;;;;;50.97;23.05;;;-5.30;99.90;;;;;;5115093;27;20043;-83
2024/01/10 09:16:04;;;;;;;47.80;21.02;;;-5.30;99.90;;;;;;5087789;27;20551;-81
2024/01/10 09:18:30;;;;;;;47.80;20.45;;;;;;;;;;5096962;27;20058;-81
2024/01/10 09:20:56;;;;;;;48.17;18.42;;;;;;;;;;5088034;27;20031;-82
2024/01/10 09:23:22;;;;;;;49.17;19.33;;;;;;;;;;5087543;27;20050;-81
2024/01/10 09:25:48;;;;;;;56.85;22.50;;;-5.00;99.90;;;;;;5104360;27;20487;-82
2024/01/10 09:28:14;;;;;;;47.03;18.98;;;;;;;;;;5104306;27;20039;-82
2024/01/10 09:30:40;;;;;;;43.67;19.10;;;-4.10;99.90;;;;;;5104507;28;20129;-82
2024/01/10 09:33:06;;;;;;;45.78;18.58;;;-5.00;99.90;;;;;;5089541;27;20208;-81
2024/01/10 09:35:32;;;;;;;51.25;20.23;;;;;;;;;;5091603;27;20043;-82
2024/01/10 09:37:59;;;;;;;45.92;19.48;;;-4.80;99.90;;;;;;5120450;27;20042;-84
2024/01/10 09:40:27;;;;;;;41.92;20.25;;;-4.90;99.90;;;;;;5102483;27;20043;-83
2024/01/10 09:42:56;;;;;;;42.03;17.08;;;-4.80;99.90;;;;;;5092105;27;20491;-82
2024/01/10 09:45:23;;;;;;;40.33;18.13;;;;;;;;;;5091326;27;20035;-82
2024/01/10 09:47:53;;;;;;;42.47;17.90;;;-4.70;99.90;;;;;;5091927;27;20108;-82
2024/01/10 09:50:19;;;;;;;37.53;16.63;;;-4.70;99.90;;;;;;5091239;27;20070;-83
2024/01/10 09:53:06;;;;;;;39.13;16.95;;;-4.70;99.90;;;;;;5091892;27;20094;-84
2024/01/10 09:55:35;;;;;;;44.20;19.92;;;-4.50;99.90;;;;;;5108334;27;20047;-81
2024/01/10 09:58:06;;;;;;;35.47;17.17;;;-4.50;99.90;;;;;;5091792;27;20306;-82
2024/01/10 10:00:35;;;;;;;39.42;16.33;;;-4.50;99.90;;;;;;5091166;27;20123;-81
2024/01/10 10:03:04;;;;;;;37.13;17.08;;;-4.50;99.90;;;;;;5091382;27;21005;-83
2024/01/10 10:05:30;;;;;;;38.25;17.05;;;;;;;;;;5108639;27;20122;-83
2024/01/10 10:07:57;;;;;;;41.17;16.95;;;-4.30;99.90;;;;;;5118482;27;20043;-82
2024/01/10 10:10:23;;;;;;;35.55;14.88;;;-4.10;99.90;;;;;;5109014;27;20039;-81
2024/01/10 10:12:52;;;;;;;35.10;15.40;;;-4.30;99.90;;;;;;5091654;27;20385;-82
2024/01/10 10:15:21;;;;;;;32.17;14.10;;;-4.30;99.90;;;;;;5108118;27;20455;-81
2024/01/10 10:17:49;;;;;;;31.83;14.52;;;-4.30;99.90;;;;;;5091650;27;20154;-81
2024/01/10 10:20:26;;;;;;;32.97;16.25;;;-4.00;99.90;;;;;;5091226;27;20051;-82
2024/01/10 10:23:02;;;;;;;31.65;14.02;;;-4.00;99.90;;;;;;5107909;27;20587;-81
2024/01/10 10:25:33;;;;;;;37.13;14.13;;;-4.00;99.90;;;;;;5090885;27;20073;-80
2024/01/10 10:28:00;;;;;;;36.33;15.40;;;-3.90;99.90;;;;;;5091143;27;20102;-82
2024/01/10 10:30:27;;;;;;;36.05;14.52;;;-3.90;99.90;;;;;;5106593;27;20548;-82
2024/01/10 10:32:53;;;;;;;33.45;15.02;;;-3.70;99.90;;;;;;5110431;27;20046;-78
2024/01/10 10:35:22;;;;;;;32.47;13.32;;;-3.50;99.90;;;;;;5110209;27;20110;-81
2024/01/10 10:37:52;;;;;;;30.13;12.52;;;-0.90;99.90;;;;;;5110796;27;20470;-81
2024/01/10 10:40:19;;;;;;;31.95;14.15;;;-3.60;99.90;;;;;;5111383;27;20050;-81
2024/01/10 10:42:47;;;;;;;30.52;14.70;;;-3.50;99.90;;;;;;5111170;27;20034;-81
2024/01/10 10:45:18;;;;;;;29.52;14.27;;;-0.30;99.90;;;;;;5110233;27;20038;-80
2024/01/10 10:47:48;;;;;;;30.88;13.55;;;-3.30;99.90;;;;;;5110712;27;20116;-82
2024/01/10 10:50:22;;;;;;;35.65;14.57;;;-3.60;99.90;;;;;;5128063;27;20038;-81
2024/01/10 10:52:50;;;;;;;29.20;13.35;;;-3.40;99.90;;;;;;5109578;27;20510;-80
2024/01/10 10:55:17;;;;;;;26.42;12.77;;;-3.40;99.90;;;;;;5091027;27;20123;-81
2024/01/10 10:57:48;;;;;;;30.00;14.20;;;-3.70;99.90;;;;;;5104246;27;20050;-81
2024/01/10 11:00:16;;;;;;;29.55;12.82;;;-3.40;99.90;;;;;;5108180;27;20034;-82
2024/01/10 11:02:46;;;;;;;30.65;13.70;;;;;;;;;;5110959;27;20034;-82
2024/01/10 11:05:12;;;;;;;29.55;13.85;;;;;;;;;;5109894;27;20038;-82
2024/01/10 11:07:43;;;;;;;28.15;12.52;;;-3.20;99.90;;;;;;5126809;27;20041;-82
2024/01/10 11:10:33;;;;;;;29.27;12.57;;;-3.20;99.90;;;;;;5110246;27;20053;-82
2024/01/10 11:13:23;;;;;;;31.08;15.15;;;-3.20;99.90;;;;;;5103091;27;20269;-82
2024/01/10 11:16:03;;;;;;;25.27;11.65;;;-2.50;99.90;;;;;;5107187;27;20047;-82
2024/01/10 11:18:54;;;;;;;27.25;12.05;;;-3.20;99.90;;;;;;5117338;27;20143;-82
2024/01/10 11:21:57;;;;;;;27.92;12.77;;;-1.60;99.90;;;;;;5090690;27;20142;-80
2024/01/10 11:24:25;;;;;;;25.73;11.15;;;-3.10;99.90;;;;;;5094574;27;20055;-82
2024/01/10 11:27:05;;;;;;;31.30;13.02;;;-3.10;99.90;;;;;;5093991;27;20049;-83
2024/01/10 11:29:31;;;;;;;29.48;13.13;;;-3.10;99.90;;;;;;5110724;27;20075;-82
2024/01/10 11:31:58;;;;;;;25.95;11.77;;;-3.10;99.90;;;;;;5095680;27;20134;-82
2024/01/10 11:34:27;;;;;;;27.75;12.18;;;-0.40;99.90;;;;;;5105708;27;20043;-82
2024/01/10 11:37:12;;;;;;;23.98;12.27;;;-3.10;99.90;;;;;;5106355;27;20739;-81
2024/01/10 11:39:41;;;;;;;22.92;10.98;;;-3.00;99.90;;;;;;5100852;27;20610;-81
2024/01/10 11:42:09;;;;;;;25.27;11.10;;;-2.80;99.90;;;;;;5102838;27;20042;-82
2024/01/10 11:44:46;;;;;;;27.10;11.88;;;-2.90;99.90;;;;;;5106468;27;20080;-81
2024/01/10 11:47:14;;;;;;;23.83;10.77;;;-3.00;99.90;;;;;;5102846;27;20484;-82
2024/01/10 11:49:40;;;;;;;21.90;10.48;;;-2.30;99.90;;;;;;5113350;27;20074;-80
2024/01/10 11:52:08;;;;;;;24.85;12.32;;;-2.80;99.90;;;;;;5105957;27;20039;-82
2024/01/10 11:54:42;;;;;;;23.42;10.32;;;-2.70;99.90;;;;;;5089872;27;20499;-81
2024/01/10 11:57:13;;;;;;;21.05;9.65;;;-2.60;99.90;;;;;;5096427;27;20047;-81
2024/01/10 11:59:42;;;;;;;26.52;11.82;;;-2.30;99.90;;;;;;5082645;27;20514;-80
2024/01/10 12:02:08;;;;;;;26.45;10.73;;;;;;;;;;5105838;27;20045;-80
2024/01/10 12:04:34;;;;;;;25.95;9.65;;;-2.50;99.90;;;;;;5094153;27;20085;-80
2024/01/10 12:07:03;;;;;;;24.40;11.80;;;-2.50;99.90;;;;;;5110668;27;20149;-82
2024/01/10 12:09:30;;;;;;;23.00;11.13;;;-2.50;99.90;;;;;;5116400;27;20038;-80
2024/01/10 12:11:56;;;;;;;24.92;11.63;;;-2.70;99.90;;;;;;5089172;27;20082;-81
2024/01/10 12:14:22;;;;;;;23.05;10.63;;;-2.60;99.90;;;;;;5088355;27;20042;-79
2024/01/10 12:16:48;;;;;;;21.25;9.32;;;;;;;;;;5108838;27;20091;-80
2024/01/10 12:19:14;;;;;;;24.48;10.85;;;-2.30;99.90;;;;;;5091978;27;20139;-81
2024/01/10 12:21:40;;;;;;;22.02;10.05;;;-2.50;99.90;;;;;;5105421;27;20079;-81
2024/01/10 12:24:06;;;;;;;20.85;10.07;;;-1.80;99.90;;;;;;5090319;27;20077;-81
2024/01/10 12:26:33;;;;;;;20.50;10.20;;;-2.10;99.90;;;;;;5093851;27;20047;-79
2024/01/10 12:28:59;;;;;;;21.40;10.40;;;-1.20;99.90;;;;;;5088592;27;20116;-81
2024/01/10 12:31:30;;;;;;;22.02;9.80;;;-1.80;99.90;;;;;;5088187;28;20476;-82
2024/01/10 12:33:56;;;;;;;20.95;9.75;;;-2.10;99.90;;;;;;5088310;27;20043;-83
2024/01/10 12:36:22;;;;;;;21.65;10.77;;;-2.30;99.90;;;;;;5124965;27;20083;-79
2024/01/10 12:38:48;;;;;;;22.17;9.43;;;-2.10;99.90;;;;;;5106086;27;20540;-82
2024/01/10 12:41:18;;;;;;;19.25;8.60;;;-2.10;99.90;;;;;;5088194;27;20047;-80
2024/01/10 12:43:50;;;;;;;17.95;9.15;;;0.50;99.90;;;;;;5105642;28;20573;-80
2024/01/10 12:46:16;;;;;;;20.30;8.68;;;;;;;;;;5123969;27;20563;-82
2024/01/10 12:48:42;;;;;;;19.38;9.50;;;-1.90;99.90;;;;;;5099465;27;20054;-82
2024/01/10 12:51:12;;;;;;;21.42;10.90;;;-2.10;99.90;;;;;;5125663;27;20430;-82
2024/01/10 12:53:39;;;;;;;20.70;10.45;;;-2.00;99.90;;;;;;5125437;27;20073;-81
2024/01/10 12:56:06;;;;;;;18.40;9.77;;;-2.00;99.90;;;;;;5105531;27;20467;-79
2024/01/10 12:58:34;;;;;;;18.98;9.13;;;-2.00;99.90;;;;;;5088923;27;20361;-81
2024/01/10 13:01:00;;;;;;;21.20;9.48;;;-2.00;99.90;;;;;;5095763;27;20047;-82
2024/01/10 13:03:26;;;;;;;21.17;10.75;;;-2.10;99.90;;;;;;5113960;27;20050;-81
2024/01/10 13:05:52;;;;;;;18.80;9.40;;;;;;;;;;5092596;28;20051;-82
2024/01/10 13:08:19;;;;;;;21.00;9.35;;;-2.00;99.90;;;;;;5126489;27;20047;-83